createdAt,value
2023-02-18T00:02:14.648Z,92.82
2023-02-18T00:04:43.412Z,92.37
2023-02-18T00:07:12.478Z,92.27
2023-02-18T00:09:41.215Z,92.38
2023-02-18T00:12:09.868Z,92.24
2023-02-18T00:14:45.108Z,91.95
2023-02-18T00:17:15.754Z,91.89
2023-02-18T00:19:44.629Z,92.00
2023-02-18T00:22:13.357Z,92.06
2023-02-18T00:24:42.056Z,91.66
2023-02-18T00:27:10.752Z,91.77
2023-02-18T00:29:39.538Z,91.45
2023-02-18T00:32:08.242Z,91.65
2023-02-18T00:34:39.753Z,91.25
2023-02-18T00:37:08.560Z,91.69
2023-02-18T00:39:37.736Z,91.41
2023-02-18T00:44:46.062Z,91.45
2023-02-18T00:47:16.161Z,91.38
2023-02-18T00:49:52.195Z,91.17
2023-02-18T00:52:20.972Z,91.53
2023-02-18T00:54:49.732Z,91.16
2023-02-18T00:57:23.604Z,91.47
2023-02-18T00:59:52.358Z,91.42
2023-02-18T01:02:21.453Z,91.34
2023-02-18T01:04:52.311Z,91.28
2023-02-18T01:07:26.176Z,91.15
2023-02-18T01:09:54.891Z,90.98
2023-02-18T01:12:23.757Z,91.30
2023-02-18T01:14:52.459Z,90.86
2023-02-18T01:17:26.302Z,91.22
2023-02-18T01:19:56.937Z,91.17
2023-02-18T01:22:31.474Z,90.69
2023-02-18T01:25:00.318Z,90.80
2023-02-18T01:27:28.987Z,90.97
2023-02-18T01:30:03.651Z,90.88
2023-02-18T01:32:32.455Z,90.51
2023-02-18T01:35:09.705Z,90.48
2023-02-18T01:37:38.569Z,90.87
2023-02-18T01:40:08.446Z,90.44
2023-02-18T01:42:47.478Z,90.82
2023-02-18T01:45:31.233Z,90.73
2023-02-18T01:48:05.574Z,90.28
2023-02-18T01:50:37.756Z,90.25
2023-02-18T01:53:06.954Z,90.57
2023-02-18T01:55:36.030Z,89.96
2023-02-18T01:58:05.295Z,90.30
2023-02-18T02:00:34.376Z,90.27
2023-02-18T02:03:04.242Z,90.33
2023-02-18T02:05:33.912Z,89.86
2023-02-18T02:10:45.539Z,90.27
2023-02-18T02:13:17.755Z,89.92
2023-02-18T02:16:08.572Z,89.91
2023-02-18T02:18:52.968Z,89.89
2023-02-18T02:21:42.886Z,89.78
2023-02-18T02:24:23.468Z,89.45
2023-02-18T02:27:07.129Z,89.61
2023-02-18T02:29:56.846Z,89.64
2023-02-18T02:32:38.732Z,90.13
2023-02-18T02:35:17.509Z,90.17
2023-02-18T02:37:49.788Z,90.57
2023-02-18T02:40:22.652Z,90.66
2023-02-18T02:42:58.477Z,90.15
2023-02-18T02:45:44.265Z,89.53
2023-02-18T02:48:17.751Z,89.39
2023-02-18T02:50:53.659Z,89.29
2023-02-18T02:53:29.301Z,88.84
2023-02-18T02:58:33.447Z,88.90
2023-02-18T03:01:20.082Z,88.43
2023-02-18T03:03:57.788Z,87.79
2023-02-18T03:06:43.658Z,88.13
2023-02-18T03:09:18.373Z,88.00
2023-02-18T03:11:56.164Z,87.79
2023-02-18T03:14:29.405Z,87.97
2023-02-18T03:17:02.311Z,87.40
2023-02-18T03:19:33.596Z,87.34
2023-02-18T03:22:07.839Z,87.28
2023-02-18T03:24:38.227Z,87.76
2023-02-18T03:27:14.946Z,88.32
2023-02-18T03:29:45.137Z,88.50
2023-02-18T03:32:15.648Z,88.72
2023-02-18T03:34:46.011Z,88.42
2023-02-18T03:37:17.454Z,88.25
2023-02-18T03:39:47.865Z,88.36
2023-02-18T03:42:23.315Z,88.27
2023-02-18T03:44:52.688Z,88.28
2023-02-18T03:47:24.413Z,88.11
2023-02-18T03:49:53.305Z,87.86
2023-02-18T03:52:24.164Z,88.17
2023-02-18T03:54:58.111Z,88.41
2023-02-18T03:57:26.808Z,88.31
2023-02-18T03:59:55.939Z,88.08
2023-02-18T04:02:24.675Z,88.29
2023-02-18T04:04:53.529Z,89.37
2023-02-18T04:07:24.440Z,89.14
2023-02-18T04:09:58.304Z,89.67
2023-02-18T04:12:27.147Z,89.69
2023-02-18T04:14:55.833Z,89.35
2023-02-18T04:17:24.632Z,89.64
2023-02-18T04:19:53.319Z,89.27
2023-02-18T04:22:29.118Z,88.73
2023-02-18T04:24:58.869Z,88.33
2023-02-18T04:27:27.537Z,87.94
2023-02-18T04:29:56.583Z,87.76
2023-02-18T04:32:25.288Z,87.81
2023-02-18T04:34:54.215Z,87.72
2023-02-18T04:37:22.931Z,87.50
2023-02-18T04:39:53.613Z,87.30
2023-02-18T04:42:23.788Z,87.34
2023-02-18T04:44:52.473Z,87.46
2023-02-18T04:47:21.190Z,87.60
2023-02-18T04:49:50.143Z,87.26
2023-02-18T04:52:18.844Z,87.24
2023-02-18T04:54:47.819Z,87.29
2023-02-18T04:57:18.434Z,88.02
2023-02-18T04:59:47.446Z,88.17
2023-02-18T05:02:16.144Z,88.30
2023-02-18T05:04:44.838Z,87.85
2023-02-18T05:07:13.444Z,87.33
2023-02-18T05:09:42.273Z,87.38
2023-02-18T05:12:11.017Z,87.46
2023-02-18T05:14:41.843Z,87.19
2023-02-18T05:17:10.515Z,86.64
2023-02-18T05:19:39.404Z,86.54
2023-02-18T05:22:08.510Z,86.45
2023-02-18T05:24:37.235Z,86.25
2023-02-18T05:27:05.867Z,86.46
2023-02-18T05:29:34.614Z,86.70
2023-02-18T05:32:10.449Z,86.35
2023-02-18T05:34:39.257Z,86.85
2023-02-18T05:37:07.972Z,86.48
2023-02-18T05:39:36.761Z,86.59
2023-02-18T05:42:05.576Z,86.95
2023-02-18T05:44:43.426Z,86.63
2023-02-18T05:47:14.946Z,86.44
2023-02-18T05:49:44.679Z,86.72
2023-02-18T05:52:14.208Z,86.46
2023-02-18T05:54:44.462Z,85.84
2023-02-18T05:57:19.992Z,85.79
2023-02-18T05:59:48.790Z,85.30
2023-02-18T06:02:19.528Z,84.25
2023-02-18T06:04:53.424Z,84.12
2023-02-18T06:07:22.278Z,84.15
2023-02-18T06:09:50.919Z,84.49
2023-02-18T06:12:19.642Z,86.01
2023-02-18T06:14:48.378Z,86.05
2023-02-18T06:17:18.273Z,85.81
2023-02-18T06:19:54.180Z,85.50
2023-02-18T06:22:22.935Z,86.03
2023-02-18T06:24:51.591Z,86.07
2023-02-18T06:27:25.441Z,85.96
2023-02-18T06:29:54.279Z,86.50
2023-02-18T06:32:23.079Z,85.35
2023-02-18T06:34:58.890Z,85.63
2023-02-18T06:37:27.588Z,85.41
2023-02-18T06:39:56.363Z,85.84
2023-02-18T06:42:32.209Z,85.14
2023-02-18T06:45:00.833Z,84.67
2023-02-18T06:47:29.588Z,83.65
2023-02-18T06:50:00.312Z,84.73
2023-02-18T06:52:30.178Z,84.24
2023-02-18T06:55:03.890Z,83.70
2023-02-18T06:57:32.652Z,84.27
2023-02-18T07:00:01.403Z,84.15
2023-02-18T07:05:07.053Z,85.00
2023-02-18T07:07:36.712Z,82.91
2023-02-18T07:10:05.543Z,82.36
2023-02-18T07:12:34.356Z,82.55
2023-02-18T07:15:03.021Z,83.04
2023-02-18T07:17:31.988Z,83.52
2023-02-18T07:20:00.633Z,84.05
2023-02-18T07:22:31.383Z,84.48
2023-02-18T07:27:41.985Z,84.56
2023-02-18T07:30:11.439Z,84.13
2023-02-18T07:32:40.251Z,83.73
2023-02-18T07:35:09.336Z,83.50
2023-02-18T07:37:40.037Z,82.62
2023-02-18T07:40:09.962Z,83.33
2023-02-18T07:42:38.615Z,83.50
2023-02-18T07:45:08.320Z,83.46
2023-02-18T07:47:39.381Z,84.92
2023-02-18T07:50:09.201Z,84.62
2023-02-18T07:52:39.967Z,83.95
2023-02-18T07:55:09.521Z,84.91
2023-02-18T07:57:56.867Z,83.92
2023-02-18T08:00:25.894Z,82.96
2023-02-18T08:02:54.623Z,82.04
2023-02-18T08:05:33.543Z,82.07
2023-02-18T08:08:04.297Z,81.28
2023-02-18T08:10:33.127Z,80.50
2023-02-18T08:13:01.778Z,81.28
2023-02-18T08:15:30.489Z,80.56
2023-02-18T08:17:59.267Z,80.55
2023-02-18T08:20:30.416Z,80.37
2023-02-18T08:23:11.837Z,80.19
2023-02-18T08:28:14.866Z,79.51
2023-02-18T08:30:46.531Z,80.43
2023-02-18T08:33:21.310Z,79.70
2023-02-18T08:35:50.971Z,79.85
2023-02-18T08:38:22.013Z,79.33
2023-02-18T08:40:50.922Z,78.67
2023-02-18T08:43:20.111Z,79.20
2023-02-18T08:45:48.847Z,78.89
2023-02-18T08:48:20.494Z,78.73
2023-02-18T08:51:00.860Z,78.84
2023-02-18T08:53:31.554Z,78.49
2023-02-18T08:56:00.459Z,78.01
2023-02-18T08:58:29.184Z,77.87
2023-02-18T09:01:04.073Z,77.66
2023-02-18T09:03:32.879Z,77.15
2023-02-18T09:06:02.093Z,76.83
2023-02-18T09:08:38.779Z,76.13
2023-02-18T09:11:08.166Z,75.92
2023-02-18T09:13:43.006Z,76.22
2023-02-18T09:16:13.441Z,75.58
2023-02-18T09:18:47.333Z,75.20
2023-02-18T09:21:18.649Z,74.36
2023-02-18T09:23:55.732Z,75.93
2023-02-18T09:26:24.892Z,75.25
2023-02-18T09:28:59.107Z,75.81
2023-02-18T09:31:32.889Z,75.25
2023-02-18T09:34:07.627Z,74.62
2023-02-18T09:36:36.300Z,74.76
2023-02-18T09:39:07.345Z,72.53
2023-02-18T09:41:39.658Z,72.65
2023-02-18T09:44:14.112Z,73.29
2023-02-18T09:46:47.283Z,71.88
2023-02-18T09:49:18.087Z,73.12
2023-02-18T09:51:47.473Z,73.06
2023-02-18T09:54:20.017Z,72.59
2023-02-18T09:59:29.199Z,71.64
2023-02-18T10:01:58.463Z,71.05
2023-02-18T10:04:29.955Z,69.97
2023-02-18T10:06:59.385Z,71.80
2023-02-18T10:09:31.552Z,71.72
2023-02-18T10:12:04.755Z,74.37
2023-02-18T10:14:38.510Z,80.88
2023-02-18T10:17:07.834Z,86.31
2023-02-18T10:19:38.699Z,89.73
2023-02-18T10:22:08.384Z,93.97
2023-02-18T10:24:41.004Z,93.44
2023-02-18T10:27:10.772Z,94.10
2023-02-18T10:29:39.523Z,89.58
2023-02-18T10:32:14.610Z,93.13
2023-02-18T10:34:44.264Z,89.05
2023-02-18T10:37:30.040Z,89.52
2023-02-18T10:40:05.764Z,90.02
2023-02-18T10:42:45.573Z,90.95
2023-02-18T10:45:21.194Z,94.09
2023-02-18T10:47:59.024Z,94.10
2023-02-18T10:50:30.658Z,88.02
2023-02-18T10:58:36.529Z,85.26
2023-02-18T11:01:08.219Z,82.32
2023-02-18T11:03:44.594Z,83.89
2023-02-18T11:06:27.892Z,81.25
2023-02-18T11:08:57.294Z,85.65
2023-02-18T11:11:31.826Z,80.47
2023-02-18T11:14:02.064Z,78.91
2023-02-18T11:16:38.889Z,80.69
2023-02-18T11:19:12.010Z,78.47
2023-02-18T11:21:41.418Z,81.08
2023-02-18T11:24:11.646Z,81.60
2023-02-18T11:26:43.910Z,83.05
2023-02-18T11:29:18.572Z,81.93
2023-02-18T11:31:49.458Z,80.15
2023-02-18T11:34:20.482Z,81.41
2023-02-18T11:36:50.359Z,81.52
2023-02-18T11:39:23.957Z,79.49
2023-02-18T11:41:59.516Z,76.04
2023-02-18T11:44:30.356Z,76.89
2023-02-18T11:47:06.831Z,73.74
2023-02-18T11:49:36.349Z,73.13
2023-02-18T11:52:07.095Z,71.46
2023-02-18T11:54:37.237Z,70.58
2023-02-18T11:57:09.005Z,70.21
2023-02-18T11:59:39.117Z,69.42
2023-02-18T12:02:39.636Z,68.10
2023-02-18T12:05:13.282Z,69.65
2023-02-18T12:07:45.002Z,69.26
2023-02-18T12:10:15.817Z,68.93
2023-02-18T12:12:49.564Z,69.23
2023-02-18T12:15:20.016Z,69.25
2023-02-18T12:17:55.859Z,68.59
2023-02-18T12:20:30.818Z,69.31
2023-02-18T12:23:04.575Z,69.98
2023-02-18T12:25:38.186Z,70.36
2023-02-18T12:28:19.436Z,70.47
2023-02-18T12:31:02.281Z,71.54
2023-02-18T12:33:43.904Z,71.79
2023-02-18T12:36:17.135Z,71.74
2023-02-18T12:39:02.173Z,71.46
2023-02-18T12:41:44.209Z,70.76
2023-02-18T12:56:44.172Z,71.60
2023-02-18T12:59:27.148Z,71.88
2023-02-18T13:02:06.904Z,71.89
2023-02-18T13:05:00.633Z,71.66
2023-02-18T13:07:54.590Z,71.58
2023-02-18T13:10:49.468Z,71.78
2023-02-18T13:13:22.066Z,71.84
2023-02-18T13:16:01.515Z,71.57
2023-02-18T13:18:35.836Z,71.67
2023-02-18T13:21:08.761Z,72.17
2023-02-18T13:23:42.106Z,72.65
2023-02-18T13:29:11.022Z,72.58
2023-02-18T13:34:31.089Z,72.84
2023-02-18T13:37:12.986Z,72.24
2023-02-18T13:39:50.910Z,72.46
2023-02-18T13:42:38.535Z,72.53
2023-02-18T13:45:27.538Z,72.71
2023-02-18T13:47:59.862Z,73.19
2023-02-18T13:50:44.540Z,73.26
2023-02-18T13:53:27.989Z,73.34
2023-02-18T13:56:05.044Z,73.32
2023-02-18T13:58:46.026Z,73.46
2023-02-18T14:01:47.523Z,73.99
2023-02-18T14:04:51.855Z,74.82
2023-02-18T14:07:45.962Z,74.80
2023-02-18T14:10:38.833Z,74.64
2023-02-18T14:13:26.282Z,75.00
2023-02-18T14:16:00.913Z,75.16
2023-02-18T14:18:57.829Z,75.78
2023-02-18T14:21:44.481Z,77.24
2023-02-18T14:24:39.780Z,77.44
2023-02-18T14:27:17.661Z,77.33
2023-02-18T14:29:47.398Z,76.76
2023-02-18T14:32:22.565Z,77.17
2023-02-18T14:35:14.967Z,77.70
2023-02-18T14:38:11.022Z,77.59
2023-02-18T14:40:54.311Z,77.74
2023-02-18T14:43:46.057Z,77.55
2023-02-18T14:46:27.170Z,78.26
2023-02-18T14:49:41.273Z,78.15
2023-02-18T14:52:31.055Z,78.01
2023-02-18T14:55:03.367Z,78.25
2023-02-18T14:57:39.815Z,78.49
2023-02-18T15:00:18.559Z,78.25
2023-02-18T15:02:51.044Z,78.32
2023-02-18T15:05:24.175Z,78.77
2023-02-18T15:08:04.091Z,78.56
2023-02-18T15:10:42.452Z,78.87
2023-02-18T15:13:19.018Z,78.68
2023-02-18T15:15:55.896Z,78.59
2023-02-18T15:18:32.927Z,78.60
2023-02-18T15:21:03.759Z,79.77
2023-02-18T15:23:38.884Z,79.61
2023-02-18T15:26:19.617Z,79.98
2023-02-18T15:28:57.743Z,81.82
2023-02-18T15:31:37.336Z,80.77
2023-02-18T15:34:28.803Z,81.60
2023-02-18T15:37:05.232Z,80.96
2023-02-18T15:39:38.163Z,81.09
2023-02-18T15:42:12.418Z,81.28
2023-02-18T15:44:49.119Z,81.22
2023-02-18T15:47:24.896Z,80.57
2023-02-18T15:49:56.748Z,80.76
2023-02-18T15:52:27.330Z,81.09
2023-02-18T15:55:03.297Z,79.89
2023-02-18T15:57:34.725Z,79.94
2023-02-18T16:00:14.138Z,79.80
2023-02-18T16:02:54.561Z,80.10
2023-02-18T16:05:28.552Z,79.75
2023-02-18T16:08:07.883Z,79.87
2023-02-18T16:10:57.563Z,79.97
2023-02-18T16:13:29.028Z,80.34
2023-02-18T16:16:01.066Z,81.29
2023-02-18T16:18:40.640Z,80.77
2023-02-18T16:21:26.549Z,81.02
2023-02-18T16:26:45.565Z,82.65
2023-02-18T16:29:17.082Z,82.06
2023-02-18T16:31:46.809Z,81.55
2023-02-18T16:34:17.887Z,81.40
2023-02-18T16:37:00.980Z,81.99
2023-02-18T16:39:30.337Z,81.91
2023-02-18T16:42:01.513Z,81.42
2023-02-18T16:44:31.127Z,81.66
2023-02-18T16:47:00.256Z,82.16
2023-02-18T16:49:30.580Z,81.60
2023-02-18T16:52:10.660Z,82.93
2023-02-18T16:54:44.861Z,82.98
2023-02-18T16:57:21.020Z,83.17
2023-02-18T16:59:50.409Z,82.61
2023-02-18T17:02:22.925Z,83.17
2023-02-18T17:05:04.957Z,83.81
2023-02-18T17:07:37.182Z,83.51
2023-02-18T17:10:11.941Z,83.16
2023-02-18T17:12:45.030Z,83.20
2023-02-18T17:15:26.715Z,82.89
2023-02-18T17:17:57.756Z,83.53
2023-02-18T17:20:34.531Z,83.45
2023-02-18T17:23:03.772Z,83.43
2023-02-18T17:25:36.220Z,83.57
2023-02-18T17:28:11.886Z,84.00
2023-02-18T17:33:20.775Z,83.61
2023-02-18T17:35:55.475Z,83.83
2023-02-18T17:38:24.623Z,83.93
2023-02-18T17:41:05.315Z,84.08
2023-02-18T17:43:37.688Z,83.23
2023-02-18T17:46:08.030Z,83.19
2023-02-18T17:48:37.272Z,83.41
2023-02-18T17:53:43.368Z,83.38
2023-02-18T17:56:14.438Z,83.29
2023-02-18T17:58:46.173Z,82.83
2023-02-18T18:01:15.444Z,82.87
2023-02-18T18:03:44.662Z,82.54
2023-02-18T18:06:25.109Z,82.71
2023-02-18T18:08:54.268Z,83.12
2023-02-18T18:11:26.005Z,83.05
2023-02-18T18:13:57.594Z,82.71
2023-02-18T18:16:32.374Z,82.13
2023-02-18T18:19:04.388Z,82.73
2023-02-18T18:21:34.920Z,82.51
2023-02-18T18:24:04.624Z,82.24
2023-02-18T18:26:40.161Z,82.14
2023-02-18T18:29:11.415Z,82.51
2023-02-18T18:31:40.923Z,82.42
2023-02-18T18:34:11.646Z,82.08
2023-02-18T18:36:41.221Z,82.29
2023-02-18T18:39:10.339Z,82.22
2023-02-18T18:41:39.522Z,82.20
2023-02-18T18:44:11.482Z,81.92
2023-02-18T18:46:40.685Z,82.07
2023-02-18T18:49:09.860Z,81.93
2023-02-18T18:51:39.151Z,81.51
2023-02-18T18:54:08.247Z,81.40
2023-02-18T18:56:42.500Z,81.48
2023-02-18T18:59:13.808Z,80.81
2023-02-18T19:01:43.158Z,81.00
2023-02-18T19:04:15.268Z,80.88
2023-02-18T19:06:49.857Z,81.13
2023-02-18T19:09:19.037Z,80.64
2023-02-18T19:11:48.553Z,80.89
2023-02-18T19:16:57.415Z,80.87
2023-02-18T19:19:26.745Z,80.58
2023-02-18T19:22:00.892Z,80.82
2023-02-18T19:24:30.015Z,80.67
2023-02-18T19:27:05.227Z,81.04
2023-02-18T19:29:36.483Z,81.70
2023-02-18T19:32:06.121Z,81.50
2023-02-18T19:34:35.689Z,82.33
2023-02-18T19:37:04.980Z,82.42
2023-02-18T19:39:39.320Z,82.96
2023-02-18T19:42:09.424Z,83.38
2023-02-18T19:44:40.884Z,83.11
2023-02-18T19:47:10.243Z,82.91
2023-02-18T19:49:39.382Z,83.45
2023-02-18T19:52:09.322Z,83.57
2023-02-18T19:54:38.604Z,83.53
2023-02-18T19:57:13.148Z,83.44
2023-02-18T19:59:44.943Z,84.10
2023-02-18T20:02:20.596Z,84.26
2023-02-18T20:04:50.579Z,85.07
2023-02-18T20:07:21.760Z,84.82
2023-02-18T20:09:53.599Z,83.84
2023-02-18T20:12:33.181Z,84.48
2023-02-18T20:15:05.090Z,83.89
2023-02-18T20:17:34.575Z,83.55
2023-02-18T20:20:09.913Z,84.53
2023-02-18T20:22:39.160Z,84.76
2023-02-18T20:25:08.946Z,84.88
2023-02-18T20:27:45.267Z,84.34
2023-02-18T20:30:31.117Z,84.51
2023-02-18T20:33:00.735Z,84.11
2023-02-18T20:35:29.857Z,84.24
2023-02-18T20:37:59.121Z,83.93
2023-02-18T20:40:28.843Z,84.23
2023-02-18T20:43:03.179Z,84.16
2023-02-18T20:45:34.391Z,83.83
2023-02-18T20:48:03.642Z,84.07
2023-02-18T20:50:32.890Z,84.09
2023-02-18T20:53:05.901Z,83.85
2023-02-18T20:55:35.311Z,83.53
2023-02-18T20:58:04.602Z,83.63
2023-02-18T21:00:36.448Z,83.38
2023-02-18T21:03:07.823Z,83.00
2023-02-18T21:08:13.197Z,82.80
2023-02-18T21:10:47.585Z,82.55
2023-02-18T21:13:22.185Z,82.44
2023-02-18T21:15:53.760Z,82.17
2023-02-18T21:18:27.983Z,81.92
2023-02-18T21:21:03.939Z,82.29
2023-02-18T21:23:38.689Z,82.36
2023-02-18T21:26:15.790Z,81.79
2023-02-18T21:28:52.532Z,81.68
2023-02-18T21:31:25.670Z,81.96
2023-02-18T21:33:55.117Z,81.97
2023-02-18T21:36:25.613Z,81.82
2023-02-18T21:39:02.456Z,81.93
2023-02-18T21:41:31.667Z,82.71
2023-02-18T21:44:00.769Z,82.59
2023-02-18T21:46:38.493Z,83.42
2023-02-18T21:49:09.101Z,84.54
2023-02-18T21:51:54.183Z,84.22
2023-02-18T21:54:24.954Z,84.58
2023-02-18T21:56:59.662Z,86.12
2023-02-18T21:59:30.922Z,86.36
2023-02-18T22:02:02.666Z,87.48
2023-02-18T22:04:33.294Z,89.49
2023-02-18T22:09:43.491Z,87.99
2023-02-18T22:12:13.441Z,88.86
2023-02-18T22:14:44.381Z,88.34
2023-02-18T22:17:18.318Z,88.65
2023-02-18T22:19:52.710Z,89.07
2023-02-18T22:22:27.002Z,88.93
2023-02-18T22:24:56.160Z,89.03
2023-02-18T22:27:26.637Z,88.27
2023-02-18T22:29:56.013Z,88.31
2023-02-18T22:32:27.191Z,88.36
2023-02-18T22:34:56.438Z,87.27
2023-02-18T22:37:30.604Z,87.47
2023-02-18T22:40:05.167Z,86.06
2023-02-18T22:42:34.771Z,85.84
2023-02-18T22:45:03.813Z,85.60
2023-02-18T22:47:40.412Z,85.69
2023-02-18T22:50:14.761Z,85.88
2023-02-18T22:52:43.770Z,86.14
2023-02-18T22:55:12.969Z,86.11
2023-02-18T22:57:42.397Z,86.41
2023-02-18T23:00:13.252Z,86.96
2023-02-18T23:02:44.515Z,87.54
2023-02-18T23:05:13.737Z,87.91
2023-02-18T23:07:42.839Z,88.41
2023-02-18T23:10:12.241Z,88.63
2023-02-18T23:12:41.731Z,89.69
2023-02-18T23:15:14.062Z,91.26
2023-02-18T23:17:50.112Z,91.75
2023-02-18T23:20:23.780Z,93.80
2023-02-18T23:25:38.084Z,93.42
2023-02-18T23:28:07.432Z,94.49
2023-02-18T23:30:37.079Z,93.15
2023-02-18T23:33:08.108Z,92.77
2023-02-18T23:35:37.378Z,92.66
2023-02-18T23:38:07.042Z,91.32
2023-02-18T23:40:36.269Z,92.34
2023-02-18T23:43:10.484Z,91.83
2023-02-18T23:45:39.712Z,92.44
2023-02-18T23:48:10.744Z,93.15
2023-02-18T23:50:39.938Z,91.49
2023-02-18T23:53:09.063Z,92.25
2023-02-18T23:55:38.282Z,92.93
2023-02-18T23:58:07.354Z,93.13
